createdAt,value
2018-12-18T00:05:13.765Z,27.13
2018-12-18T00:11:17.102Z,23.20
2018-12-18T00:17:21.249Z,23.40
2018-12-18T00:23:24.577Z,20.13
2018-12-18T00:29:27.903Z,25.10
2018-12-18T00:35:31.409Z,22.83
2018-12-18T00:41:34.751Z,22.50
2018-12-18T00:47:38.112Z,22.53
2018-12-18T00:53:41.460Z,26.03
2018-12-18T00:59:44.801Z,22.57
2018-12-18T01:05:48.226Z,22.20
2018-12-18T01:11:51.559Z,20.00
2018-12-18T01:17:54.901Z,20.40
2018-12-18T01:23:58.229Z,24.40
2018-12-18T01:30:01.556Z,23.70
2018-12-18T01:36:04.991Z,22.27
2018-12-18T01:42:08.331Z,23.43
2018-12-18T01:48:11.668Z,23.27
2018-12-18T01:54:15.000Z,20.60
2018-12-18T02:00:18.369Z,27.00
2018-12-18T02:06:21.704Z,23.27
2018-12-18T02:12:25.072Z,24.30
2018-12-18T02:18:28.423Z,21.77
2018-12-18T02:24:31.763Z,29.13
2018-12-18T02:30:35.104Z,21.17
2018-12-18T02:36:38.437Z,25.37
2018-12-18T02:42:41.774Z,27.57
2018-12-18T02:48:45.113Z,25.30
2018-12-18T02:54:48.447Z,22.97
2018-12-18T03:00:51.788Z,26.60
2018-12-18T03:06:55.157Z,31.60
2018-12-18T03:12:58.494Z,20.50
2018-12-18T03:19:01.842Z,22.43
2018-12-18T03:25:05.277Z,20.00
2018-12-18T03:31:08.634Z,18.83
2018-12-18T03:37:11.973Z,18.20
2018-12-18T03:43:15.309Z,21.03
2018-12-18T03:49:18.684Z,30.40
2018-12-18T03:55:22.035Z,18.73
2018-12-18T04:01:25.365Z,22.53
2018-12-18T04:07:28.710Z,19.40
2018-12-18T04:13:32.057Z,15.33
2018-12-18T04:19:35.382Z,18.70
2018-12-18T04:25:38.725Z,21.50
2018-12-18T04:31:42.073Z,15.20
2018-12-18T04:37:45.415Z,21.03
2018-12-18T04:43:48.767Z,18.60
2018-12-18T04:49:52.104Z,16.43
2018-12-18T04:55:55.445Z,18.03
2018-12-18T05:01:58.878Z,17.30
2018-12-18T05:08:02.234Z,18.60
2018-12-18T05:14:05.585Z,16.50
2018-12-18T05:20:09.013Z,13.17
2018-12-18T05:26:12.337Z,13.73
2018-12-18T05:32:15.678Z,15.43
2018-12-18T05:38:20.845Z,13.20
2018-12-18T05:44:24.169Z,14.60
2018-12-18T05:50:27.597Z,11.40
2018-12-18T05:56:30.927Z,17.40
2018-12-18T06:02:34.260Z,11.23
2018-12-18T06:08:37.593Z,13.50
2018-12-18T06:14:40.924Z,12.40
2018-12-18T06:20:44.255Z,20.90
2018-12-18T06:26:47.586Z,12.23
2018-12-18T06:32:50.930Z,11.40
2018-12-18T06:38:54.259Z,14.57
2018-12-18T06:44:57.588Z,9.83
2018-12-18T06:51:00.933Z,12.20
2018-12-18T06:57:04.289Z,12.17
2018-12-18T07:03:07.655Z,15.50
2018-12-18T07:09:10.983Z,11.37
2018-12-18T07:15:14.481Z,16.20
2018-12-18T07:21:18.189Z,17.03
2018-12-18T07:27:21.539Z,14.67
2018-12-18T07:33:24.891Z,9.33
2018-12-18T07:39:28.223Z,15.67
2018-12-18T07:45:31.562Z,19.83
2018-12-18T07:51:34.882Z,11.30
2018-12-18T07:57:38.350Z,15.73
2018-12-18T08:03:41.701Z,13.07
2018-12-18T08:09:45.145Z,18.03
2018-12-18T08:15:48.482Z,13.57
2018-12-18T08:21:51.816Z,13.80
2018-12-18T08:27:55.161Z,15.03
2018-12-18T08:33:58.494Z,16.50
2018-12-18T08:40:01.842Z,13.83
2018-12-18T08:46:10.224Z,22.37
2018-12-18T08:52:10.638Z,11.47
2018-12-18T08:58:13.974Z,15.00
2018-12-18T09:04:17.320Z,16.37
2018-12-18T09:10:20.675Z,15.33
2018-12-18T09:16:29.480Z,19.40
2018-12-18T09:22:32.820Z,12.53
2018-12-18T09:28:36.142Z,12.00
2018-12-18T09:34:39.479Z,13.43
2018-12-18T09:40:48.701Z,10.13
2018-12-18T09:46:52.061Z,12.53
2018-12-18T09:52:55.421Z,13.60
2018-12-18T09:58:58.758Z,14.73
2018-12-18T10:05:02.092Z,14.63
2018-12-18T10:11:05.420Z,15.60
2018-12-18T10:17:08.755Z,10.73
2018-12-18T10:23:12.088Z,15.17
2018-12-18T10:29:15.416Z,18.67
2018-12-18T10:35:18.758Z,18.43
2018-12-18T10:41:22.082Z,17.00
2018-12-18T10:47:25.421Z,20.87
2018-12-18T10:53:28.757Z,19.00
2018-12-18T10:59:32.103Z,16.07
2018-12-18T11:05:35.430Z,17.40
2018-12-18T11:11:38.775Z,10.50
2018-12-18T11:17:42.119Z,11.53
2018-12-18T11:23:45.450Z,9.90
2018-12-18T11:29:48.778Z,9.37
2018-12-18T11:35:52.125Z,8.23
2018-12-18T11:41:55.462Z,11.20
2018-12-18T11:47:58.795Z,6.63
2018-12-18T11:54:02.134Z,11.13
2018-12-18T12:00:09.194Z,14.30
2018-12-18T12:06:12.523Z,9.83
2018-12-18T12:12:15.847Z,14.33
2018-12-18T12:18:21.060Z,10.20
2018-12-18T12:24:24.392Z,8.57
2018-12-18T12:30:27.729Z,5.07
2018-12-18T12:36:31.066Z,10.50
2018-12-18T12:42:34.406Z,6.33
2018-12-18T12:48:55.338Z,3.40
2018-12-18T12:54:58.664Z,4.23
2018-12-18T13:01:02.022Z,4.07
2018-12-18T13:07:05.362Z,5.80
2018-12-18T13:13:08.715Z,5.43
2018-12-18T13:19:12.058Z,5.10
2018-12-18T13:25:15.412Z,3.63
2018-12-18T13:31:18.755Z,8.93
2018-12-18T13:37:22.098Z,5.83
2018-12-18T13:43:25.459Z,7.63
2018-12-18T13:49:28.799Z,4.73
2018-12-18T13:55:36.642Z,8.10
2018-12-18T14:01:37.493Z,7.07
2018-12-18T14:07:40.821Z,8.40
2018-12-18T14:13:44.155Z,8.67
2018-12-18T14:19:47.499Z,7.10
2018-12-18T14:25:51.053Z,9.47
2018-12-18T14:31:54.377Z,7.03
2018-12-18T14:37:57.715Z,9.17
2018-12-18T14:44:01.063Z,9.30
2018-12-18T14:50:06.257Z,9.30
2018-12-18T14:56:09.587Z,7.97
2018-12-18T15:02:12.983Z,7.80
2018-12-18T15:08:16.324Z,18.00
2018-12-18T15:14:19.712Z,50.67
2018-12-18T15:20:23.047Z,27.63
2018-12-18T15:26:26.395Z,15.30
2018-12-18T15:32:29.923Z,8.37
2018-12-18T15:38:33.257Z,9.17
2018-12-18T15:44:36.595Z,9.87
2018-12-18T15:50:39.952Z,9.93
2018-12-18T15:56:43.663Z,8.73
2018-12-18T16:02:47.008Z,5.97
2018-12-18T16:08:50.385Z,11.30
2018-12-18T16:14:53.751Z,8.33
2018-12-18T16:20:57.108Z,12.60
2018-12-18T16:27:00.536Z,9.93
2018-12-18T16:33:03.927Z,19.73
2018-12-18T16:39:08.046Z,12.77
2018-12-18T16:45:11.431Z,12.80
2018-12-18T16:51:14.771Z,40.00
2018-12-18T16:57:18.135Z,16.73
2018-12-18T17:03:21.465Z,7.53
2018-12-18T17:09:24.819Z,9.10
2018-12-18T17:15:28.207Z,11.70
2018-12-18T17:21:31.549Z,6.60
2018-12-18T17:27:34.880Z,8.07
2018-12-18T17:33:38.210Z,12.73
2018-12-18T17:39:41.560Z,7.40
2018-12-18T17:45:44.885Z,6.60
2018-12-18T17:51:48.232Z,14.97
2018-12-18T17:57:51.622Z,13.93
2018-12-18T18:03:54.978Z,8.73
2018-12-18T18:09:58.303Z,25.07
2018-12-18T18:16:01.636Z,8.77
2018-12-18T18:22:04.969Z,11.17
2018-12-18T18:28:08.288Z,9.83
2018-12-18T18:34:12.600Z,10.33
2018-12-18T18:40:16.108Z,8.57
2018-12-18T18:46:19.466Z,10.87
2018-12-18T18:52:22.823Z,11.63
2018-12-18T18:58:26.150Z,13.23
2018-12-18T19:04:29.586Z,14.33
2018-12-18T19:10:32.938Z,12.17
2018-12-18T19:16:36.262Z,12.10
2018-12-18T19:22:39.593Z,15.80
2018-12-18T19:28:42.926Z,11.87
2018-12-18T19:34:46.269Z,14.73
2018-12-18T19:40:49.647Z,16.70
2018-12-18T19:46:53.005Z,17.50
2018-12-18T19:52:56.336Z,19.90
2018-12-18T19:58:59.673Z,13.50
2018-12-18T20:05:03.050Z,21.90
2018-12-18T20:11:06.400Z,16.43
2018-12-18T20:17:09.835Z,16.07
2018-12-18T20:23:13.181Z,17.23
2018-12-18T20:29:16.535Z,16.63
2018-12-18T20:35:20.215Z,12.63
2018-12-18T20:41:23.542Z,14.53
2018-12-18T20:47:26.877Z,12.70
2018-12-18T20:53:30.299Z,12.90
2018-12-18T20:59:33.747Z,12.10
2018-12-18T21:05:37.088Z,13.23
2018-12-18T21:11:40.425Z,9.60
2018-12-18T21:17:43.756Z,14.97
2018-12-18T21:23:47.081Z,15.60
2018-12-18T21:29:50.436Z,17.70
2018-12-18T21:35:53.772Z,20.20
2018-12-18T21:41:57.115Z,19.00
2018-12-18T21:48:00.533Z,18.80
2018-12-18T21:54:04.200Z,16.43
2018-12-18T22:06:25.767Z,24.90
2018-12-18T22:12:29.116Z,23.20
2018-12-18T22:18:32.504Z,21.30
2018-12-18T22:24:35.934Z,25.33
2018-12-18T22:30:39.296Z,20.73
2018-12-18T22:36:42.652Z,24.00
2018-12-18T22:42:46.019Z,19.50
2018-12-18T22:48:49.369Z,16.80
2018-12-18T22:54:52.734Z,19.97
2018-12-18T23:01:02.792Z,17.60
2018-12-18T23:07:06.248Z,23.50
2018-12-18T23:19:26.776Z,26.70
2018-12-18T23:25:30.129Z,18.50
2018-12-18T23:31:33.459Z,15.50
2018-12-18T23:37:36.804Z,18.90
2018-12-18T23:43:40.131Z,16.63
2018-12-18T23:49:43.540Z,16.70
2018-12-18T23:55:46.892Z,17.60
